Time;durP1;ratioP1;P1;durP2;ratioP2;P2;SDS_P1;SDS_P2;PMS_P1;PMS_P2;Temp;Humidity;BMP_temperature;BMP_pressure;BME280_temperature;BME280_humidity;BME280_pressure;Samples;Min_cycle;Max_cycle;Signal;HPM_P1;HPM_P2
2023/09/29 00:00:55;;;;;;;;;;;;;;;17.93;73.86;95628.91;5117449;28;964;-53
2023/09/29 00:03:21;;;;;;;;;;;;;;;17.98;74.74;95630.19;5116979;28;1992;-52
2023/09/29 00:05:49;;;;;;;;;;;;;;;17.94;75.35;95627.03;5117064;28;1341;-53
2023/09/29 00:08:16;;;;;;;;;;;;;;;17.86;76.37;95627.19;5117147;28;1045;-53
2023/09/29 00:10:43;;;;;;;;;;;;;;;17.75;77.40;95621.22;5116877;28;1092;-53
2023/09/29 00:13:09;;;;;;;;;;;;;;;17.60;78.31;95623.16;5117062;28;1068;-52
2023/09/29 00:15:35;;;;;;;;;;;;;;;17.53;78.90;95625.81;5116825;28;978;-53
2023/09/29 00:18:01;;;;;;;;;;;;;;;17.43;78.07;95624.44;5117085;28;982;-53
2023/09/29 00:20:27;;;;;;;;;;;;;;;17.47;79.00;95633.84;5116674;28;1032;-53
2023/09/29 00:22:54;;;;;;;;;;;;;;;17.65;77.29;95628.00;5116924;28;1997;-53
2023/09/29 00:25:20;;;;;;;;;;;;;;;17.66;77.35;95625.13;5116581;28;1103;-53
2023/09/29 00:27:46;;;;;;;;;;;;;;;17.54;78.54;95626.63;5116758;28;973;-53
2023/09/29 00:30:12;;;;;;;;;;;;;;;17.29;79.77;95632.41;5116623;28;1193;-53
2023/09/29 00:32:42;;;;;;;;;;;;;;;17.07;80.91;95628.00;5116465;28;1024;-53
2023/09/29 00:35:17;;;;;;;;;;;;;;;17.22;79.31;95619.84;5116768;28;1040;-53
2023/09/29 00:37:44;;;;;;;;;;;;;;;17.45;78.00;95625.09;5116764;28;1079;-52
2023/09/29 00:40:14;;;;;;;;;;;;;;;17.40;77.87;95627.56;5116332;28;1011;-52
2023/09/29 00:42:41;;;;;;;;;;;;;;;17.37;77.61;95621.47;5116408;28;1909;-52
2023/09/29 00:45:08;;;;;;;;;;;;;;;17.42;77.36;95622.78;5116348;28;983;-53
2023/09/29 00:47:36;;;;;;;;;;;;;;;17.54;76.65;95621.22;5116349;28;980;-52
2023/09/29 00:50:04;;;;;;;;;;;;;;;17.65;75.40;95630.72;5116427;28;932;-52
2023/09/29 00:52:31;;;;;;;;;;;;;;;17.80;74.52;95619.81;5116026;28;1095;-53
2023/09/29 00:54:58;;;;;;;;;;;;;;;17.78;76.00;95624.59;5116263;28;981;-53
2023/09/29 00:57:24;;;;;;;;;;;;;;;17.75;75.70;95618.50;5114903;28;2506;-53
2023/09/29 00:59:51;;;;;;;;;;;;;;;17.66;77.08;95618.84;5114743;28;2939;-52
2023/09/29 01:02:18;;;;;;;;;;;;;;;17.54;77.81;95622.06;5097665;28;2516;-52
2023/09/29 01:04:48;;;;;;;;;;;;;;;17.43;79.74;95627.16;5095530;28;1044;-53
2023/09/29 01:07:15;;;;;;;;;;;;;;;17.42;80.51;95610.09;5112765;28;1149;-53
2023/09/29 01:09:41;;;;;;;;;;;;;;;17.55;77.43;95620.22;5115918;28;988;-52
2023/09/29 01:12:10;;;;;;;;;;;;;;;17.63;77.28;95619.25;5115804;28;976;-52
2023/09/29 01:14:36;;;;;;;;;;;;;;;17.55;78.20;95622.94;5115697;28;981;-52
2023/09/29 01:17:02;;;;;;;;;;;;;;;17.45;80.14;95616.97;5115673;28;1956;-53
2023/09/29 01:19:28;;;;;;;;;;;;;;;17.35;81.31;95615.44;5115534;28;1083;-52
2023/09/29 01:21:54;;;;;;;;;;;;;;;17.41;81.00;95621.09;5115897;28;964;-53
2023/09/29 01:24:21;;;;;;;;;;;;;;;17.44;81.06;95620.72;5115455;28;1914;-52
2023/09/29 01:26:48;;;;;;;;;;;;;;;17.25;82.10;95617.63;5115490;28;1099;-53
2023/09/29 01:29:15;;;;;;;;;;;;;;;17.15;82.52;95617.94;5115274;28;1119;-53
2023/09/29 01:31:41;;;;;;;;;;;;;;;17.04;82.51;95621.13;5115615;28;986;-53
2023/09/29 01:34:07;;;;;;;;;;;;;;;17.24;80.29;95620.50;5115602;28;970;-52
2023/09/29 01:36:34;;;;;;;;;;;;;;;17.25;80.92;95622.19;5115191;28;1299;-53
2023/09/29 01:39:00;;;;;;;;;;;;;;;17.15;81.48;95619.81;5115218;28;1052;-52
2023/09/29 01:41:27;;;;;;;;;;;;;;;17.10;82.61;95623.06;5115160;28;1055;-52
2023/09/29 01:43:53;;;;;;;;;;;;;;;17.05;82.08;95620.06;5115332;28;1906;-53
2023/09/29 01:46:19;;;;;;;;;;;;;;;17.08;82.22;95619.72;5115270;28;949;-52
2023/09/29 01:48:45;;;;;;;;;;;;;;;16.94;83.42;95620.56;5115322;28;977;-53
2023/09/29 01:51:11;;;;;;;;;;;;;;;17.03;82.89;95618.59;5114931;28;1084;-52
2023/09/29 01:53:37;;;;;;;;;;;;;;;17.10;82.62;95622.22;5115064;28;1036;-52
2023/09/29 01:56:03;;;;;;;;;;;;;;;17.19;81.76;95621.09;5114985;28;966;-52
2023/09/29 01:58:31;;;;;;;;;;;;;;;17.13;81.43;95616.44;5119956;27;1217;-52
2023/09/29 02:00:57;;;;;;;;;;;;;;;16.92;84.19;95625.31;5135360;27;1020;-53
2023/09/29 02:03:23;;;;;;;;;;;;;;;16.69;83.70;95622.72;5135352;27;1905;-52
2023/09/29 02:05:50;;;;;;;;;;;;;;;16.51;83.68;95618.53;5135338;27;1215;-53
2023/09/29 02:08:18;;;;;;;;;;;;;;;16.62;81.29;95622.66;5134460;27;1083;-53
2023/09/29 02:10:48;;;;;;;;;;;;;;;16.94;79.61;95621.44;5135487;27;1047;-52
2023/09/29 02:13:15;;;;;;;;;;;;;;;17.11;78.94;95621.19;5134997;27;1052;-52
2023/09/29 02:15:41;;;;;;;;;;;;;;;16.84;83.40;95626.25;5135376;27;1055;-52
2023/09/29 02:18:09;;;;;;;;;;;;;;;16.86;83.19;95631.50;5135236;27;993;-52
2023/09/29 02:20:36;;;;;;;;;;;;;;;16.94;82.07;95624.13;5135281;27;995;-53
2023/09/29 02:23:04;;;;;;;;;;;;;;;16.89;83.18;95628.41;5134858;27;1910;-52
2023/09/29 02:25:30;;;;;;;;;;;;;;;16.82;82.75;95632.88;5134851;27;1082;-53
2023/09/29 02:27:57;;;;;;;;;;;;;;;16.79;83.48;95634.09;5134851;27;988;-52
2023/09/29 02:30:24;;;;;;;;;;;;;;;16.84;83.22;95633.53;5135080;27;971;-53
2023/09/29 02:32:52;;;;;;;;;;;;;;;16.75;83.96;95632.75;5134954;27;1019;-52
2023/09/29 02:35:18;;;;;;;;;;;;;;;16.58;85.17;95624.06;5134775;27;992;-52
2023/09/29 02:37:45;;;;;;;;;;;;;;;16.56;84.42;95632.34;5120801;27;2502;-52
2023/09/29 02:40:11;;;;;;;;;;;;;;;16.67;83.25;95624.78;5113996;28;1032;-52
2023/09/29 02:42:37;;;;;;;;;;;;;;;16.58;83.93;95627.59;5114270;28;1906;-52
2023/09/29 02:45:04;;;;;;;;;;;;;;;16.73;81.59;95632.13;5114035;28;1033;-53
2023/09/29 02:47:33;;;;;;;;;;;;;;;16.85;82.07;95632.53;5113839;28;930;-53
2023/09/29 02:49:59;;;;;;;;;;;;;;;16.97;81.83;95625.59;5113960;28;1024;-52
2023/09/29 02:52:26;;;;;;;;;;;;;;;16.83;82.90;95632.72;5113875;28;1972;-53
2023/09/29 02:54:54;;;;;;;;;;;;;;;16.65;85.02;95634.91;5113869;28;1053;-53
2023/09/29 02:57:21;;;;;;;;;;;;;;;16.62;85.64;95627.19;5114097;28;1271;-52
2023/09/29 02:59:47;;;;;;;;;;;;;;;16.83;83.84;95640.81;5130145;27;1169;-53
2023/09/29 03:02:13;;;;;;;;;;;;;;;16.92;83.36;95639.69;5134301;27;1036;-54
2023/09/29 03:04:39;;;;;;;;;;;;;;;16.95;83.10;95643.88;5134575;27;1974;-54
2023/09/29 03:07:09;;;;;;;;;;;;;;;16.88;84.19;95638.38;5134156;28;1217;-54
2023/09/29 03:09:38;;;;;;;;;;;;;;;16.88;83.71;95638.38;5134491;28;1064;-54
2023/09/29 03:12:05;;;;;;;;;;;;;;;16.88;83.20;95640.25;5134537;28;1048;-53
2023/09/29 03:14:30;;;;;;;;;;;;;;;16.76;84.17;95634.44;5134479;28;991;-53
2023/09/29 03:17:02;;;;;;;;;;;;;;;16.61;85.79;95641.72;5134262;28;1098;-53
2023/09/29 03:19:30;;;;;;;;;;;;;;;16.62;83.82;95651.47;5135992;27;1024;-53
2023/09/29 03:21:58;;;;;;;;;;;;;;;16.75;82.83;95643.56;5138459;27;1890;-53
2023/09/29 03:24:27;;;;;;;;;;;;;;;16.86;82.67;95645.81;5138237;27;1930;-53
2023/09/29 03:26:53;;;;;;;;;;;;;;;16.99;81.66;95653.25;5138402;27;1104;-53
2023/09/29 03:29:19;;;;;;;;;;;;;;;17.10;81.79;95646.53;5138574;27;1004;-53
2023/09/29 03:31:46;;;;;;;;;;;;;;;17.05;82.76;95649.78;5138285;27;1052;-53
2023/09/29 03:34:14;;;;;;;;;;;;;;;17.04;82.29;95648.13;5138161;27;1111;-53
2023/09/29 03:36:40;;;;;;;;;;;;;;;17.14;82.01;95655.94;5138415;27;1000;-53
2023/09/29 03:39:07;;;;;;;;;;;;;;;17.17;81.63;95656.41;5138400;27;1009;-53
2023/09/29 03:41:34;;;;;;;;;;;;;;;17.15;82.21;95649.53;5138299;27;1019;-53
2023/09/29 03:44:00;;;;;;;;;;;;;;;17.10;82.98;95644.66;5138293;27;1917;-53
2023/09/29 03:46:28;;;;;;;;;;;;;;;17.10;82.59;95644.66;5137931;27;1040;-53
2023/09/29 03:48:54;;;;;;;;;;;;;;;16.98;83.16;95638.09;5138277;27;961;-53
2023/09/29 03:51:24;;;;;;;;;;;;;;;16.71;86.12;95639.56;5137681;27;1084;-53
2023/09/29 03:53:50;;;;;;;;;;;;;;;16.45;86.67;95643.59;5138085;27;1051;-53
2023/09/29 03:56:16;;;;;;;;;;;;;;;16.30;86.60;95646.28;5138055;27;974;-53
2023/09/29 03:58:42;;;;;;;;;;;;;;;16.39;85.74;95647.03;5130437;27;1149;-53
2023/09/29 04:01:08;;;;;;;;;;;;;;;16.51;85.04;95642.00;5117357;28;1011;-52
2023/09/29 04:03:34;;;;;;;;;;;;;;;16.67;84.18;95640.97;5117001;28;1989;-53
2023/09/29 04:06:00;;;;;;;;;;;;;;;16.76;83.73;95639.84;5117000;28;1093;-53
2023/09/29 04:08:26;;;;;;;;;;;;;;;16.88;84.02;95637.53;5117232;28;973;-53
2023/09/29 04:10:53;;;;;;;;;;;;;;;16.79;84.49;95642.19;5117194;28;1157;-53
2023/09/29 04:13:19;;;;;;;;;;;;;;;16.59;85.23;95642.75;5117154;28;969;-53
2023/09/29 04:15:45;;;;;;;;;;;;;;;16.28;87.14;95642.09;5117273;28;1044;-53
2023/09/29 04:18:11;;;;;;;;;;;;;;;16.07;86.61;95640.94;5116757;28;1098;-53
2023/09/29 04:20:37;;;;;;;;;;;;;;;16.06;87.58;95644.66;5116735;28;1000;-53
2023/09/29 04:23:06;;;;;;;;;;;;;;;16.23;86.44;95650.72;5116971;28;1913;-53
2023/09/29 04:25:32;;;;;;;;;;;;;;;16.43;85.50;95645.63;5116606;28;1040;-53
2023/09/29 04:27:58;;;;;;;;;;;;;;;16.50;84.90;95645.72;5116951;28;1151;-53
2023/09/29 04:30:24;;;;;;;;;;;;;;;16.48;85.12;95643.19;5115988;28;1041;-53
2023/09/29 04:32:52;;;;;;;;;;;;;;;16.42;85.15;95643.94;5116783;28;1051;-53
2023/09/29 04:35:18;;;;;;;;;;;;;;;16.24;86.67;95641.63;5116323;28;1049;-54
2023/09/29 04:37:45;;;;;;;;;;;;;;;16.10;86.96;95650.53;5116414;28;1032;-52
2023/09/29 04:40:11;;;;;;;;;;;;;;;16.00;87.59;95659.69;5116602;28;1037;-53
2023/09/29 04:42:37;;;;;;;;;;;;;;;16.20;84.98;95653.78;5116592;28;1914;-54
2023/09/29 04:45:04;;;;;;;;;;;;;;;16.20;85.67;95668.13;5116262;28;1095;-52
2023/09/29 04:47:30;;;;;;;;;;;;;;;16.29;85.86;95662.63;5116135;28;1024;-53
2023/09/29 04:49:56;;;;;;;;;;;;;;;16.39;85.64;95661.34;5116102;28;1035;-53
2023/09/29 04:52:22;;;;;;;;;;;;;;;16.38;86.88;95659.66;5116295;28;1048;-52
2023/09/29 04:54:48;;;;;;;;;;;;;;;16.45;86.05;95662.47;5116044;28;1044;-52
2023/09/29 04:57:14;;;;;;;;;;;;;;;16.55;85.93;95663.03;5115994;28;1072;-52
2023/09/29 04:59:40;;;;;;;;;;;;;;;16.56;85.62;95664.72;5116009;28;1161;-53
2023/09/29 05:02:06;;;;;;;;;;;;;;;16.47;86.60;95665.81;5116263;28;969;-53
2023/09/29 05:04:32;;;;;;;;;;;;;;;16.40;86.52;95667.59;5115669;28;1901;-53
2023/09/29 05:06:58;;;;;;;;;;;;;;;16.36;87.41;95667.13;5131093;27;1226;-53
2023/09/29 05:09:24;;;;;;;;;;;;;;;16.48;86.01;95664.78;5136642;27;1039;-53
2023/09/29 05:11:50;;;;;;;;;;;;;;;16.68;84.30;95669.66;5136351;27;1087;-53
2023/09/29 05:14:16;;;;;;;;;;;;;;;16.88;81.31;95669.94;5136219;27;1021;-53
2023/09/29 05:16:42;;;;;;;;;;;;;;;16.92;81.28;95674.81;5136568;27;1012;-53
2023/09/29 05:19:08;;;;;;;;;;;;;;;16.87;81.94;95674.53;5136174;27;1060;-53
2023/09/29 05:21:36;;;;;;;;;;;;;;;16.65;84.66;95670.03;5136398;27;1055;-53
2023/09/29 05:24:02;;;;;;;;;;;;;;;16.34;86.68;95677.25;5136229;27;1930;-53
2023/09/29 05:26:28;;;;;;;;;;;;;;;16.35;84.85;95670.00;5136287;27;1040;-52
2023/09/29 05:28:55;;;;;;;;;;;;;;;16.58;83.14;95661.84;5136168;27;1052;-52
2023/09/29 05:31:21;;;;;;;;;;;;;;;16.77;82.00;95663.97;5117722;27;1044;-52
2023/09/29 05:33:47;;;;;;;;;;;;;;;16.90;79.57;95671.44;5136128;27;968;-53
2023/09/29 05:36:13;;;;;;;;;;;;;;;16.95;81.31;95669.00;5136032;27;1039;-52
2023/09/29 05:38:39;;;;;;;;;;;;;;;17.03;81.62;95676.16;5135822;27;1055;-53
2023/09/29 05:41:05;;;;;;;;;;;;;;;17.20;80.28;95674.09;5136086;27;996;-53
2023/09/29 05:43:31;;;;;;;;;;;;;;;17.46;77.59;95680.84;5134580;27;1986;-53
2023/09/29 05:45:58;;;;;;;;;;;;;;;17.35;77.31;95682.16;5135959;27;1044;-53
2023/09/29 05:48:24;;;;;;;;;;;;;;;17.21;80.29;95686.59;5135534;27;941;-53
2023/09/29 05:50:50;;;;;;;;;;;;;;;17.29;78.35;95686.47;5135900;27;961;-53
2023/09/29 05:53:16;;;;;;;;;;;;;;;17.12;80.18;95693.94;5135449;27;1118;-53
2023/09/29 05:55:42;;;;;;;;;;;;;;;17.26;79.36;95691.41;5135798;27;1043;-53
2023/09/29 05:58:08;;;;;;;;;;;;;;;17.33;77.27;95684.22;5114867;27;1212;-53
2023/09/29 06:00:34;;;;;;;;;;;;;;;17.49;78.41;95692.13;5114852;28;1005;-53
2023/09/29 06:03:00;;;;;;;;;;;;;;;17.73;73.07;95698.19;5114700;28;2000;-53
2023/09/29 06:05:27;;;;;;;;;;;;;;;17.83;73.17;95696.00;5114487;28;1230;-53
2023/09/29 06:07:53;;;;;;;;;;;;;;;17.91;72.57;95697.78;5115053;28;962;-53
2023/09/29 06:10:19;;;;;;;;;;;;;;;17.97;73.24;95688.06;5114778;28;1020;-53
2023/09/29 06:12:45;;;;;;;;;;;;;;;18.08;76.66;95695.63;5114733;28;996;-53
2023/09/29 06:15:11;;;;;;;;;;;;;;;18.17;73.58;95691.75;5114585;28;1060;-53
2023/09/29 06:17:37;;;;;;;;;;;;;;;18.25;72.97;95686.22;5114474;28;1040;-53
2023/09/29 06:20:04;;;;;;;;;;;;;;;18.14;75.33;95689.44;5114732;28;1005;-53
2023/09/29 06:22:30;;;;;;;;;;;;;;;18.06;76.49;95701.25;5114253;28;1906;-53
2023/09/29 06:24:56;;;;;;;;;;;;;;;18.19;74.96;95691.56;5114677;28;1000;-53
2023/09/29 06:27:22;;;;;;;;;;;;;;;18.17;74.53;95696.31;5114286;28;1199;-52
2023/09/29 06:29:50;;;;;;;;;;;;;;;18.08;74.46;95701.03;5114321;28;1029;-53
2023/09/29 06:32:16;;;;;;;;;;;;;;;18.23;72.53;95703.66;5114174;28;1015;-53
2023/09/29 06:34:42;;;;;;;;;;;;;;;18.35;72.66;95707.53;5114163;28;1088;-52
2023/09/29 06:37:09;;;;;;;;;;;;;;;18.36;71.99;95705.66;5096324;28;1019;-53
2023/09/29 06:39:35;;;;;;;;;;;;;;;18.36;72.13;95711.06;5114208;28;2147;-53
2023/09/29 06:42:04;;;;;;;;;;;;;;;18.44;72.88;95709.06;5114457;28;1064;-53
2023/09/29 06:44:30;;;;;;;;;;;;;;;18.57;71.54;95708.28;5114007;28;1993;-53
2023/09/29 06:46:56;;;;;;;;;;;;;;;18.72;70.94;95716.31;5113943;28;1038;-54
2023/09/29 06:49:22;;;;;;;;;;;;;;;18.68;70.90;95712.34;5113910;28;1163;-53
2023/09/29 06:51:48;;;;;;;;;;;;;;;18.74;71.16;95708.84;5114276;28;1000;-53
2023/09/29 06:54:14;;;;;;;;;;;;;;;18.96;68.94;95708.81;5113578;28;1004;-53
2023/09/29 06:56:40;;;;;;;;;;;;;;;19.15;68.45;95712.66;5113908;28;1036;-54
2023/09/29 06:59:07;;;;;;;;;;;;;;;19.22;69.95;95714.34;5113801;28;1149;-53
2023/09/29 07:01:34;;;;;;;;;;;;;;;19.20;69.08;95708.31;5113667;28;1961;-54
2023/09/29 07:04:00;;;;;;;;;;;;;;;19.17;69.93;95716.81;5113739;28;1998;-53
2023/09/29 07:06:27;;;;;;;;;;;;;;;19.18;69.78;95712.22;5124507;27;1256;-54
2023/09/29 07:08:53;;;;;;;;;;;;;;;19.25;67.93;95713.94;5134329;28;1036;-54
2023/09/29 07:11:19;;;;;;;;;;;;;;;19.30;67.58;95714.19;5134341;28;969;-54
2023/09/29 07:13:45;;;;;;;;;;;;;;;19.41;68.20;95715.47;5134585;28;1029;-54
2023/09/29 07:16:11;;;;;;;;;;;;;;;19.62;67.53;95710.97;5134101;28;972;-54
2023/09/29 07:18:37;;;;;;;;;;;;;;;19.76;68.78;95714.59;5134212;28;1020;-54
2023/09/29 07:21:04;;;;;;;;;;;;;;;19.92;66.48;95716.94;5134427;28;1214;-54
2023/09/29 07:23:33;;;;;;;;;;;;;;;20.13;67.11;95712.34;5134122;28;1909;-54
2023/09/29 07:25:59;;;;;;;;;;;;;;;20.31;66.28;95704.44;5134482;28;1167;-54
2023/09/29 07:28:25;;;;;;;;;;;;;;;20.46;62.98;95710.47;5134389;28;1220;-54
2023/09/29 07:30:51;;;;;;;;;;;;;;;20.61;62.93;95710.31;5134012;28;1052;-54
2023/09/29 07:33:17;;;;;;;;;;;;;;;20.78;62.25;95699.84;5133974;28;1032;-54
2023/09/29 07:35:47;;;;;;;;;;;;;;;21.03;61.15;95713.56;5134204;28;1060;-54
2023/09/29 07:38:13;;;;;;;;;;;;;;;21.25;61.84;95711.44;5134136;28;1225;-54
2023/09/29 07:40:39;;;;;;;;;;;;;;;21.33;60.95;95709.53;5134343;28;973;-54
2023/09/29 07:43:05;;;;;;;;;;;;;;;21.68;60.10;95706.47;5134099;28;1910;-54
2023/09/29 07:45:32;;;;;;;;;;;;;;;22.18;58.58;95714.78;5134140;28;990;-54
2023/09/29 07:47:58;;;;;;;;;;;;;;;22.45;57.14;95720.88;5133915;28;1027;-54
2023/09/29 07:50:24;;;;;;;;;;;;;;;23.03;53.55;95725.22;5134072;28;977;-54
2023/09/29 07:52:50;;;;;;;;;;;;;;;23.26;48.20;95721.81;5134214;28;995;-53
2023/09/29 07:55:16;;;;;;;;;;;;;;;23.38;47.64;95730.09;5134122;28;1057;-54
2023/09/29 07:57:42;;;;;;;;;;;;;;;23.65;47.22;95729.75;5133855;28;1099;-52
2023/09/29 08:00:15;;;;;;;;;;;;;;;24.14;44.90;95730.59;5114642;28;1172;-52
2023/09/29 08:02:41;;;;;;;;;;;;;;;24.50;45.04;95732.34;5113569;28;1976;-51
2023/09/29 08:05:08;;;;;;;;;;;;;;;24.82;44.27;95725.78;5113549;28;1028;-51
2023/09/29 08:07:34;;;;;;;;;;;;;;;24.81;42.46;95724.94;5116370;28;1230;-54
2023/09/29 08:10:00;;;;;;;;;;;;;;;24.82;42.93;95726.63;5117183;28;1041;-53
2023/09/29 08:12:26;;;;;;;;;;;;;;;25.03;40.97;95727.94;5117192;28;1020;-54
2023/09/29 08:14:53;;;;;;;;;;;;;;;25.14;41.63;95727.09;5116905;28;978;-53
2023/09/29 08:17:19;;;;;;;;;;;;;;;25.29;39.42;95732.13;5117012;28;992;-53
2023/09/29 08:19:45;;;;;;;;;;;;;;;25.20;42.13;95725.31;5117030;28;1061;-53
2023/09/29 08:22:11;;;;;;;;;;;;;;;24.84;40.49;95720.91;5116838;28;970;-53
2023/09/29 08:24:39;;;;;;;;;;;;;;;24.36;40.43;95734.47;5116702;28;1911;-53
2023/09/29 08:27:06;;;;;;;;;;;;;;;24.12;40.31;95727.28;5116989;28;1029;-53
2023/09/29 08:29:32;;;;;;;;;;;;;;;24.04;39.97;95731.16;5114847;28;2530;-53
2023/09/29 08:32:00;;;;;;;;;;;;;;;23.99;41.20;95720.09;5116842;28;1054;-53
2023/09/29 08:34:29;;;;;;;;;;;;;;;24.10;41.00;95726.69;5116720;28;1043;-53
2023/09/29 08:36:55;;;;;;;;;;;;;;;24.21;42.07;95722.28;5116444;28;1099;-53
2023/09/29 08:39:21;;;;;;;;;;;;;;;24.32;39.59;95725.09;5116433;28;992;-53
2023/09/29 08:41:48;;;;;;;;;;;;;;;24.48;40.05;95723.56;5116686;28;969;-52
2023/09/29 08:44:18;;;;;;;;;;;;;;;24.38;41.20;95717.00;5116153;28;1988;-54
2023/09/29 08:46:47;;;;;;;;;;;;;;;24.30;42.04;95710.81;5116288;28;1044;-53
2023/09/29 08:49:15;;;;;;;;;;;;;;;24.18;41.06;95718.13;5116445;28;977;-53
2023/09/29 08:51:46;;;;;;;;;;;;;;;24.08;40.94;95715.16;5116136;28;1084;-54
2023/09/29 08:54:13;;;;;;;;;;;;;;;23.99;41.09;95714.63;5116083;28;1041;-53
2023/09/29 08:56:39;;;;;;;;;;;;;;;24.00;40.93;95718.19;5116016;28;1083;-53
2023/09/29 08:59:06;;;;;;;;;;;;;;;23.97;41.32;95708.56;5116210;28;1212;-52
2023/09/29 09:01:32;;;;;;;;;;;;;;;23.99;41.31;95713.81;5116100;28;1071;-52
2023/09/29 09:03:58;;;;;;;;;;;;;;;24.11;38.69;95714.66;5115912;28;1902;-52
2023/09/29 09:06:25;;;;;;;;;;;;;;;24.32;39.68;95707.84;5126199;27;1088;-52
2023/09/29 09:08:52;;;;;;;;;;;;;;;24.51;39.12;95709.47;5136523;27;1071;-53
2023/09/29 09:11:19;;;;;;;;;;;;;;;24.69;38.90;95708.53;5136268;27;1206;-53
2023/09/29 09:13:54;;;;;;;;;;;;;;;24.88;38.60;95711.16;5136662;27;965;-52
2023/09/29 09:16:20;;;;;;;;;;;;;;;25.03;36.67;95714.25;5136134;27;1109;-54
2023/09/29 09:18:46;;;;;;;;;;;;;;;25.25;37.61;95708.19;5136238;27;1068;-51
2023/09/29 09:21:13;;;;;;;;;;;;;;;25.40;37.72;95713.16;5136118;27;1017;-52
2023/09/29 09:23:39;;;;;;;;;;;;;;;25.37;36.03;95709.00;5136002;27;2004;-53
2023/09/29 09:26:16;;;;;;;;;;;;;;;25.21;36.54;95706.97;5135516;27;2301;-53
2023/09/29 09:28:42;;;;;;;;;;;;;;;25.07;36.51;95709.13;5155211;27;2841;-53
2023/09/29 09:31:08;;;;;;;;;;;;;;;25.05;36.83;95705.81;5157042;27;1044;-54
2023/09/29 09:33:34;;;;;;;;;;;;;;;25.25;38.05;95699.97;5156537;27;1036;-54
2023/09/29 09:36:04;;;;;;;;;;;;;;;25.48;36.54;95702.69;5156674;27;996;-53
2023/09/29 09:38:33;;;;;;;;;;;;;;;25.46;36.59;95695.78;5156695;27;1032;-55
2023/09/29 09:41:00;;;;;;;;;;;;;;;25.19;37.52;95693.53;5138405;27;1033;-55
2023/09/29 09:43:30;;;;;;;;;;;;;;;25.09;37.90;95691.41;5156643;27;2000;-55
2023/09/29 09:46:07;;;;;;;;;;;;;;;25.18;37.99;95693.78;5156465;27;995;-54
2023/09/29 09:48:45;;;;;;;;;;;;;;;25.18;37.05;95688.31;5156328;27;972;-55
2023/09/29 09:51:18;;;;;;;;;;;;;;;25.33;37.25;95694.16;5156309;27;1031;-53
2023/09/29 09:53:47;;;;;;;;;;;;;;;25.58;36.39;95693.84;5156631;27;972;-54
2023/09/29 09:56:21;;;;;;;;;;;;;;;25.42;36.89;95694.59;5156450;27;1077;-52
2023/09/29 09:58:48;;;;;;;;;;;;;;;25.55;35.96;95698.97;5148243;27;1168;-52
2023/09/29 10:01:15;;;;;;;;;;;;;;;25.80;36.65;95685.81;5135560;27;976;-53
2023/09/29 10:03:41;;;;;;;;;;;;;;;26.11;36.00;95686.41;5135598;27;1987;-52
2023/09/29 10:06:09;;;;;;;;;;;;;;;26.32;36.09;95693.09;5135372;27;1242;-54
2023/09/29 10:08:35;;;;;;;;;;;;;;;26.49;34.78;95688.44;5135364;27;968;-54
2023/09/29 10:11:09;;;;;;;;;;;;;;;26.63;35.04;95690.88;5135154;27;1028;-54
2023/09/29 10:13:37;;;;;;;;;;;;;;;26.65;35.72;95686.84;5135151;27;1857;-54
2023/09/29 10:16:07;;;;;;;;;;;;;;;26.55;34.95;95681.13;5135308;27;965;-54
2023/09/29 10:18:33;;;;;;;;;;;;;;;26.56;34.41;95676.47;5135215;27;1064;-55
2023/09/29 10:21:06;;;;;;;;;;;;;;;26.59;33.72;95678.72;5135210;27;1001;-54
2023/09/29 10:23:45;;;;;;;;;;;;;;;26.66;34.96;95666.53;5134761;27;1990;-54
2023/09/29 10:26:13;;;;;;;;;;;;;;;26.77;33.87;95666.69;5135282;27;1032;-54
2023/09/29 10:28:39;;;;;;;;;;;;;;;26.75;34.31;95657.88;5134226;27;1035;-54
2023/09/29 10:31:10;;;;;;;;;;;;;;;26.80;32.35;95657.97;5135200;27;1019;-55
2023/09/29 10:33:53;;;;;;;;;;;;;;;26.67;33.89;95657.25;5135147;27;1055;-55
2023/09/29 10:36:25;;;;;;;;;;;;;;;26.69;33.23;95659.72;5134999;27;1128;-55
2023/09/29 10:38:53;;;;;;;;;;;;;;;26.67;32.41;95654.50;5135048;27;1063;-54
2023/09/29 10:41:21;;;;;;;;;;;;;;;26.73;31.45;95657.31;5134621;27;1110;-54
2023/09/29 10:43:48;;;;;;;;;;;;;;;26.72;32.53;95648.25;5117561;27;2508;-55
2023/09/29 10:46:18;;;;;;;;;;;;;;;26.68;32.48;95650.66;5114355;28;1095;-55
2023/09/29 10:48:48;;;;;;;;;;;;;;;26.73;31.71;95646.34;5113987;28;1025;-55
2023/09/29 10:51:21;;;;;;;;;;;;;;;26.78;32.70;95647.25;5113900;28;1032;-54
2023/09/29 10:53:48;;;;;;;;;;;;;;;26.59;31.96;95648.56;5113823;28;1123;-54
2023/09/29 10:56:18;;;;;;;;;;;;;;;26.58;30.25;95652.38;5114161;28;1053;-53
2023/09/29 10:58:45;;;;;;;;;;;;;;;26.68;31.99;95639.69;5121658;27;1225;-54
2023/09/29 11:01:17;;;;;;;;;;;;;;;26.83;31.76;95643.75;5131385;27;2478;-54
2023/09/29 11:03:43;;;;;;;;;;;;;;;26.84;31.07;95640.78;5114092;28;1978;-54
2023/09/29 11:06:16;;;;;;;;;;;;;;;26.90;31.06;95630.69;5113673;28;1068;-56
2023/09/29 11:08:45;;;;;;;;;;;;;;;26.86;31.74;95624.88;5113818;28;1036;-56
2023/09/29 11:11:11;;;;;;;;;;;;;;;26.75;30.30;95627.72;5113617;28;1318;-55
2023/09/29 11:13:39;;;;;;;;;;;;;;;26.66;31.05;95628.16;5113854;28;1024;-55
2023/09/29 11:16:19;;;;;;;;;;;;;;;26.55;30.66;95614.50;5113809;28;964;-55
2023/09/29 11:18:45;;;;;;;;;;;;;;;26.66;30.08;95619.91;5113653;28;1083;-55
2023/09/29 11:21:12;;;;;;;;;;;;;;;26.78;30.83;95608.00;5113864;28;965;-55
2023/09/29 11:23:39;;;;;;;;;;;;;;;26.76;30.62;95605.53;5113845;28;1914;-56
2023/09/29 11:26:09;;;;;;;;;;;;;;;26.72;30.33;95609.03;5113973;28;1122;-56
2023/09/29 11:28:53;;;;;;;;;;;;;;;26.74;29.95;95602.19;5113636;28;1031;-55
2023/09/29 11:31:20;;;;;;;;;;;;;;;26.58;28.69;95598.38;5113763;28;1060;-55
2023/09/29 11:33:46;;;;;;;;;;;;;;;26.64;30.18;95599.31;5113843;28;992;-55
2023/09/29 11:36:12;;;;;;;;;;;;;;;26.70;30.46;95590.06;5113676;28;1071;-55
2023/09/29 11:38:38;;;;;;;;;;;;;;;26.67;29.23;95591.44;5113823;28;1032;-55
2023/09/29 11:41:05;;;;;;;;;;;;;;;26.71;29.00;95585.41;5116294;28;1032;-55
2023/09/29 11:43:32;;;;;;;;;;;;;;;26.65;29.23;95588.09;5117730;28;1914;-56
2023/09/29 11:45:58;;;;;;;;;;;;;;;26.65;28.05;95584.50;5117497;28;1137;-55
2023/09/29 11:48:24;;;;;;;;;;;;;;;26.58;29.34;95578.34;5117330;28;1040;-56
2023/09/29 11:50:51;;;;;;;;;;;;;;;26.60;29.41;95574.31;5117817;28;945;-55
2023/09/29 11:53:17;;;;;;;;;;;;;;;26.54;29.75;95553.34;5117575;28;975;-55
2023/09/29 11:55:43;;;;;;;;;;;;;;;26.74;29.03;95579.44;5117441;28;1115;-55
2023/09/29 11:58:09;;;;;;;;;;;;;;;26.66;29.22;95573.28;5119669;27;1221;-55
2023/09/29 12:00:36;;;;;;;;;;;;;;;26.68;29.12;95564.81;5137966;27;1044;-55
2023/09/29 12:03:05;;;;;;;;;;;;;;;26.67;29.38;95563.16;5137673;27;2000;-56
2023/09/29 12:05:32;;;;;;;;;;;;;;;26.72;28.51;95570.63;5137704;27;1199;-56
2023/09/29 12:07:58;;;;;;;;;;;;;;;26.72;28.96;95565.97;5137727;27;1088;-56
2023/09/29 12:10:24;;;;;;;;;;;;;;;26.75;28.61;95570.09;5137624;27;1045;-56
2023/09/29 12:12:51;;;;;;;;;;;;;;;26.62;28.42;95560.34;5137489;27;1115;-56
2023/09/29 12:15:18;;;;;;;;;;;;;;;26.57;28.71;95562.97;5137387;27;974;-56
2023/09/29 12:17:44;;;;;;;;;;;;;;;26.56;29.24;95566.78;5137389;27;1255;-55
2023/09/29 12:20:13;;;;;;;;;;;;;;;26.57;29.02;95558.31;5137670;27;1047;-55
2023/09/29 12:22:43;;;;;;;;;;;;;;;26.61;28.89;95559.50;5137561;27;1910;-56
2023/09/29 12:25:11;;;;;;;;;;;;;;;26.58;29.66;95562.75;5137417;27;1028;-56
2023/09/29 12:27:38;;;;;;;;;;;;;;;26.53;28.93;95556.34;5137302;27;1119;-56
2023/09/29 12:30:08;;;;;;;;;;;;;;;26.59;29.63;95558.06;5137535;27;1037;-56
2023/09/29 12:32:37;;;;;;;;;;;;;;;26.57;28.29;95555.56;5137071;27;1099;-56
2023/09/29 12:35:04;;;;;;;;;;;;;;;26.36;28.57;95550.88;5137234;27;956;-56
2023/09/29 12:37:30;;;;;;;;;;;;;;;26.24;29.33;95545.50;5137064;27;1003;-55
2023/09/29 12:39:56;;;;;;;;;;;;;;;26.32;30.05;95547.00;5137393;27;1031;-55
2023/09/29 12:42:22;;;;;;;;;;;;;;;26.40;29.91;95541.06;5136840;27;1104;-56
2023/09/29 12:44:49;;;;;;;;;;;;;;;26.14;29.14;95535.19;5137084;27;1988;-55
2023/09/29 12:47:15;;;;;;;;;;;;;;;25.94;31.64;95532.16;5137131;27;1019;-56
2023/09/29 12:49:41;;;;;;;;;;;;;;;26.09;29.33;95526.91;5136869;27;1036;-55
2023/09/29 12:52:10;;;;;;;;;;;;;;;26.14;28.86;95534.38;5136179;27;977;-55
2023/09/29 12:54:39;;;;;;;;;;;;;;;26.06;29.64;95538.34;5136819;27;961;-56
2023/09/29 12:57:06;;;;;;;;;;;;;;;26.00;29.73;95526.47;5136962;27;965;-56
2023/09/29 12:59:36;;;;;;;;;;;;;;;26.07;29.18;95527.16;5122656;27;1157;-55